sensor_id;sensor_type;location;lat;lon;timestamp;temperature;humidity
32524;DHT22;18965;52.242;20.886;2023-04-25T00:00:20;13.10;65.80
32524;DHT22;18965;52.242;20.886;2023-04-25T00:02:46;13.00;66.00
32524;DHT22;18965;52.242;20.886;2023-04-25T00:05:12;13.10;66.10
32524;DHT22;18965;52.242;20.886;2023-04-25T00:07:40;13.10;66.20
32524;DHT22;18965;52.242;20.886;2023-04-25T00:10:08;13.00;66.10
32524;DHT22;18965;52.242;20.886;2023-04-25T00:12:34;13.00;66.40
32524;DHT22;18965;52.242;20.886;2023-04-25T00:15:01;13.00;66.40
32524;DHT22;18965;52.242;20.886;2023-04-25T00:17:27;13.00;66.60
32524;DHT22;18965;52.242;20.886;2023-04-25T00:19:53;13.00;66.40
32524;DHT22;18965;52.242;20.886;2023-04-25T00:22:19;12.90;66.60
32524;DHT22;18965;52.242;20.886;2023-04-25T00:24:44;12.90;66.80
32524;DHT22;18965;52.242;20.886;2023-04-25T00:27:10;12.90;67.00
32524;DHT22;18965;52.242;20.886;2023-04-25T00:29:36;12.90;67.10
32524;DHT22;18965;52.242;20.886;2023-04-25T00:32:02;12.90;67.10
32524;DHT22;18965;52.242;20.886;2023-04-25T00:34:28;12.90;67.20
32524;DHT22;18965;52.242;20.886;2023-04-25T00:36:54;12.90;67.30
32524;DHT22;18965;52.242;20.886;2023-04-25T00:39:19;12.90;68.00
32524;DHT22;18965;52.242;20.886;2023-04-25T00:41:45;12.90;67.40
32524;DHT22;18965;52.242;20.886;2023-04-25T00:44:11;12.90;67.60
32524;DHT22;18965;52.242;20.886;2023-04-25T00:46:38;12.90;67.50
32524;DHT22;18965;52.242;20.886;2023-04-25T00:49:05;12.90;67.60
32524;DHT22;18965;52.242;20.886;2023-04-25T00:51:31;12.90;67.40
32524;DHT22;18965;52.242;20.886;2023-04-25T00:53:58;12.90;67.40
32524;DHT22;18965;52.242;20.886;2023-04-25T00:56:24;12.90;67.80
32524;DHT22;18965;52.242;20.886;2023-04-25T00:58:53;12.90;67.60
32524;DHT22;18965;52.242;20.886;2023-04-25T01:01:19;12.90;67.80
32524;DHT22;18965;52.242;20.886;2023-04-25T01:03:46;12.90;67.90
32524;DHT22;18965;52.242;20.886;2023-04-25T01:06:12;12.90;68.40
32524;DHT22;18965;52.242;20.886;2023-04-25T01:08:39;12.90;68.80
32524;DHT22;18965;52.242;20.886;2023-04-25T01:11:05;12.90;69.00
32524;DHT22;18965;52.242;20.886;2023-04-25T01:13:32;12.90;69.20
32524;DHT22;18965;52.242;20.886;2023-04-25T01:15:59;12.90;69.10
32524;DHT22;18965;52.242;20.886;2023-04-25T01:18:25;12.90;69.40
32524;DHT22;18965;52.242;20.886;2023-04-25T01:20:52;12.90;69.70
32524;DHT22;18965;52.242;20.886;2023-04-25T01:23:22;12.90;69.50
32524;DHT22;18965;52.242;20.886;2023-04-25T01:25:49;12.90;70.00
32524;DHT22;18965;52.242;20.886;2023-04-25T01:28:15;12.80;69.70
32524;DHT22;18965;52.242;20.886;2023-04-25T01:30:41;12.90;69.90
32524;DHT22;18965;52.242;20.886;2023-04-25T01:33:08;12.90;70.10
32524;DHT22;18965;52.242;20.886;2023-04-25T01:35:34;12.80;70.00
32524;DHT22;18965;52.242;20.886;2023-04-25T01:38:00;12.80;70.30
32524;DHT22;18965;52.242;20.886;2023-04-25T01:40:27;12.80;70.30
32524;DHT22;18965;52.242;20.886;2023-04-25T01:42:53;12.80;70.60
32524;DHT22;18965;52.242;20.886;2023-04-25T01:45:19;12.90;70.80
32524;DHT22;18965;52.242;20.886;2023-04-25T01:47:45;12.90;70.90
32524;DHT22;18965;52.242;20.886;2023-04-25T01:50:15;12.90;70.80
32524;DHT22;18965;52.242;20.886;2023-04-25T01:52:41;12.90;70.80
32524;DHT22;18965;52.242;20.886;2023-04-25T01:55:07;12.90;70.80
32524;DHT22;18965;52.242;20.886;2023-04-25T01:57:33;12.90;70.80
32524;DHT22;18965;52.242;20.886;2023-04-25T02:00:01;12.90;70.80
32524;DHT22;18965;52.242;20.886;2023-04-25T02:02:28;12.80;70.80
32524;DHT22;18965;52.242;20.886;2023-04-25T02:04:54;12.80;71.10
32524;DHT22;18965;52.242;20.886;2023-04-25T02:07:20;12.80;71.20
32524;DHT22;18965;52.242;20.886;2023-04-25T02:09:46;12.80;71.30
32524;DHT22;18965;52.242;20.886;2023-04-25T02:12:12;12.80;71.50
32524;DHT22;18965;52.242;20.886;2023-04-25T02:14:37;12.80;71.40
32524;DHT22;18965;52.242;20.886;2023-04-25T02:17:04;12.80;71.30
32524;DHT22;18965;52.242;20.886;2023-04-25T02:19:31;12.80;71.30
32524;DHT22;18965;52.242;20.886;2023-04-25T02:21:56;12.80;72.20
32524;DHT22;18965;52.242;20.886;2023-04-25T02:24:22;12.80;72.30
32524;DHT22;18965;52.242;20.886;2023-04-25T02:26:48;12.80;72.10
32524;DHT22;18965;52.242;20.886;2023-04-25T02:29:15;12.80;72.20
32524;DHT22;18965;52.242;20.886;2023-04-25T02:31:41;12.80;71.50
32524;DHT22;18965;52.242;20.886;2023-04-25T02:34:06;12.80;72.30
32524;DHT22;18965;52.242;20.886;2023-04-25T02:36:32;12.70;71.60
32524;DHT22;18965;52.242;20.886;2023-04-25T02:39:00;12.70;71.90
32524;DHT22;18965;52.242;20.886;2023-04-25T02:41:26;12.70;72.20
32524;DHT22;18965;52.242;20.886;2023-04-25T02:43:52;12.70;72.30
32524;DHT22;18965;52.242;20.886;2023-04-25T02:46:18;12.70;72.70
32524;DHT22;18965;52.242;20.886;2023-04-25T02:48:43;12.70;72.70
32524;DHT22;18965;52.242;20.886;2023-04-25T02:51:09;12.60;72.10
32524;DHT22;18965;52.242;20.886;2023-04-25T02:53:35;12.60;71.90
32524;DHT22;18965;52.242;20.886;2023-04-25T02:56:01;12.60;72.50
32524;DHT22;18965;52.242;20.886;2023-04-25T02:58:27;12.60;72.20
32524;DHT22;18965;52.242;20.886;2023-04-25T03:00:53;12.50;71.90
32524;DHT22;18965;52.242;20.886;2023-04-25T03:03:19;12.50;72.10
32524;DHT22;18965;52.242;20.886;2023-04-25T03:05:50;12.60;72.20
32524;DHT22;18965;52.242;20.886;2023-04-25T03:08:17;12.50;72.50
32524;DHT22;18965;52.242;20.886;2023-04-25T03:10:43;12.50;72.10
32524;DHT22;18965;52.242;20.886;2023-04-25T03:13:09;12.50;72.20
32524;DHT22;18965;52.242;20.886;2023-04-25T03:15:35;12.50;72.10
32524;DHT22;18965;52.242;20.886;2023-04-25T03:18:01;12.50;72.10
32524;DHT22;18965;52.242;20.886;2023-04-25T03:20:27;12.50;72.30
32524;DHT22;18965;52.242;20.886;2023-04-25T03:22:53;12.50;72.40
32524;DHT22;18965;52.242;20.886;2023-04-25T03:25:19;12.50;72.80
32524;DHT22;18965;52.242;20.886;2023-04-25T03:27:44;12.50;72.30
32524;DHT22;18965;52.242;20.886;2023-04-25T03:30:10;12.50;72.80
32524;DHT22;18965;52.242;20.886;2023-04-25T03:32:36;12.50;73.20
32524;DHT22;18965;52.242;20.886;2023-04-25T03:35:02;12.60;73.50
32524;DHT22;18965;52.242;20.886;2023-04-25T03:37:28;12.70;73.90
32524;DHT22;18965;52.242;20.886;2023-04-25T03:39:54;12.70;74.10
32524;DHT22;18965;52.242;20.886;2023-04-25T03:42:19;12.80;74.20
32524;DHT22;18965;52.242;20.886;2023-04-25T03:44:48;12.80;74.30
32524;DHT22;18965;52.242;20.886;2023-04-25T03:47:14;12.80;74.50
32524;DHT22;18965;52.242;20.886;2023-04-25T03:49:40;12.90;74.60
32524;DHT22;18965;52.242;20.886;2023-04-25T03:52:05;12.90;74.70
32524;DHT22;18965;52.242;20.886;2023-04-25T03:54:31;13.00;74.80
32524;DHT22;18965;52.242;20.886;2023-04-25T03:56:57;13.00;75.00
32524;DHT22;18965;52.242;20.886;2023-04-25T03:59:22;13.00;75.00
32524;DHT22;18965;52.242;20.886;2023-04-25T04:01:48;13.00;75.10
32524;DHT22;18965;52.242;20.886;2023-04-25T04:04:14;13.10;75.20
32524;DHT22;18965;52.242;20.886;2023-04-25T04:06:39;13.10;75.30
32524;DHT22;18965;52.242;20.886;2023-04-25T04:09:05;13.10;75.30
32524;DHT22;18965;52.242;20.886;2023-04-25T04:11:35;13.20;75.40
32524;DHT22;18965;52.242;20.886;2023-04-25T04:14:02;13.20;75.50
32524;DHT22;18965;52.242;20.886;2023-04-25T04:16:27;13.20;75.50
32524;DHT22;18965;52.242;20.886;2023-04-25T04:18:53;13.20;75.50
32524;DHT22;18965;52.242;20.886;2023-04-25T04:21:19;13.20;75.50
32524;DHT22;18965;52.242;20.886;2023-04-25T04:23:44;13.30;75.60
32524;DHT22;18965;52.242;20.886;2023-04-25T04:26:11;13.30;75.70
32524;DHT22;18965;52.242;20.886;2023-04-25T04:28:38;13.30;75.80
32524;DHT22;18965;52.242;20.886;2023-04-25T04:31:04;13.30;75.80
32524;DHT22;18965;52.242;20.886;2023-04-25T04:33:29;13.30;75.80
32524;DHT22;18965;52.242;20.886;2023-04-25T04:35:56;13.30;75.90
32524;DHT22;18965;52.242;20.886;2023-04-25T04:38:22;13.40;75.90
32524;DHT22;18965;52.242;20.886;2023-04-25T04:40:48;13.30;76.00
32524;DHT22;18965;52.242;20.886;2023-04-25T04:43:14;13.40;76.10
32524;DHT22;18965;52.242;20.886;2023-04-25T04:45:42;13.40;76.10
32524;DHT22;18965;52.242;20.886;2023-04-25T04:48:08;13.40;76.20
32524;DHT22;18965;52.242;20.886;2023-04-25T04:50:37;13.40;76.30
32524;DHT22;18965;52.242;20.886;2023-04-25T04:53:04;13.50;76.40
32524;DHT22;18965;52.242;20.886;2023-04-25T04:55:30;13.50;76.40
32524;DHT22;18965;52.242;20.886;2023-04-25T04:57:55;13.40;76.20
32524;DHT22;18965;52.242;20.886;2023-04-25T05:00:21;13.50;76.40
32524;DHT22;18965;52.242;20.886;2023-04-25T05:02:47;13.50;76.50
32524;DHT22;18965;52.242;20.886;2023-04-25T05:05:13;13.50;76.60
32524;DHT22;18965;52.242;20.886;2023-04-25T05:07:38;13.50;76.60
32524;DHT22;18965;52.242;20.886;2023-04-25T05:10:04;13.50;76.60
32524;DHT22;18965;52.242;20.886;2023-04-25T05:12:30;13.40;76.50
32524;DHT22;18965;52.242;20.886;2023-04-25T05:14:56;13.40;76.60
32524;DHT22;18965;52.242;20.886;2023-04-25T05:17:22;13.40;76.80
32524;DHT22;18965;52.242;20.886;2023-04-25T05:19:47;13.50;76.80
32524;DHT22;18965;52.242;20.886;2023-04-25T05:22:13;13.50;76.80
32524;DHT22;18965;52.242;20.886;2023-04-25T05:24:39;13.50;77.00
32524;DHT22;18965;52.242;20.886;2023-04-25T05:27:04;13.50;77.00
32524;DHT22;18965;52.242;20.886;2023-04-25T05:29:31;13.60;77.00
32524;DHT22;18965;52.242;20.886;2023-04-25T05:31:56;13.60;76.90
32524;DHT22;18965;52.242;20.886;2023-04-25T05:34:22;13.50;76.70
32524;DHT22;18965;52.242;20.886;2023-04-25T05:36:48;13.50;76.60
32524;DHT22;18965;52.242;20.886;2023-04-25T05:39:15;13.50;76.50
32524;DHT22;18965;52.242;20.886;2023-04-25T05:41:42;13.50;76.60
32524;DHT22;18965;52.242;20.886;2023-04-25T05:44:07;13.40;76.70
32524;DHT22;18965;52.242;20.886;2023-04-25T05:46:33;13.50;76.90
32524;DHT22;18965;52.242;20.886;2023-04-25T05:48:59;13.50;76.80
32524;DHT22;18965;52.242;20.886;2023-04-25T05:51:24;13.50;76.80
32524;DHT22;18965;52.242;20.886;2023-04-25T05:53:51;13.60;76.80
32524;DHT22;18965;52.242;20.886;2023-04-25T05:56:17;13.60;76.80
32524;DHT22;18965;52.242;20.886;2023-04-25T05:58:42;13.70;76.70
32524;DHT22;18965;52.242;20.886;2023-04-25T06:01:08;13.80;76.70
32524;DHT22;18965;52.242;20.886;2023-04-25T06:03:34;13.80;76.50
32524;DHT22;18965;52.242;20.886;2023-04-25T06:06:00;13.80;76.20
32524;DHT22;18965;52.242;20.886;2023-04-25T06:08:26;13.80;76.20
32524;DHT22;18965;52.242;20.886;2023-04-25T06:10:51;13.80;76.10
32524;DHT22;18965;52.242;20.886;2023-04-25T06:13:17;13.80;76.10
32524;DHT22;18965;52.242;20.886;2023-04-25T06:15:43;13.80;76.10
32524;DHT22;18965;52.242;20.886;2023-04-25T06:18:09;13.80;76.10
32524;DHT22;18965;52.242;20.886;2023-04-25T06:20:34;13.80;76.00
32524;DHT22;18965;52.242;20.886;2023-04-25T06:23:00;13.70;76.00
32524;DHT22;18965;52.242;20.886;2023-04-25T06:25:26;13.70;76.00
32524;DHT22;18965;52.242;20.886;2023-04-25T06:27:51;13.70;76.00
32524;DHT22;18965;52.242;20.886;2023-04-25T06:30:17;13.70;76.00
32524;DHT22;18965;52.242;20.886;2023-04-25T06:32:47;13.50;75.80
32524;DHT22;18965;52.242;20.886;2023-04-25T06:35:13;13.50;75.90
32524;DHT22;18965;52.242;20.886;2023-04-25T06:37:39;13.50;76.90
32524;DHT22;18965;52.242;20.886;2023-04-25T06:40:05;13.40;75.90
32524;DHT22;18965;52.242;20.886;2023-04-25T06:42:31;13.30;75.90
32524;DHT22;18965;52.242;20.886;2023-04-25T06:44:57;13.20;75.70
32524;DHT22;18965;52.242;20.886;2023-04-25T06:47:22;13.20;75.90
32524;DHT22;18965;52.242;20.886;2023-04-25T06:49:48;13.20;76.20
32524;DHT22;18965;52.242;20.886;2023-04-25T06:52:14;13.20;76.40
32524;DHT22;18965;52.242;20.886;2023-04-25T06:54:39;13.20;76.40
32524;DHT22;18965;52.242;20.886;2023-04-25T06:57:05;13.20;76.50
32524;DHT22;18965;52.242;20.886;2023-04-25T06:59:31;13.30;76.60
32524;DHT22;18965;52.242;20.886;2023-04-25T07:01:56;13.30;76.50
32524;DHT22;18965;52.242;20.886;2023-04-25T07:04:22;13.40;76.60
32524;DHT22;18965;52.242;20.886;2023-04-25T07:06:48;13.50;76.80
32524;DHT22;18965;52.242;20.886;2023-04-25T07:09:14;13.60;77.00
32524;DHT22;18965;52.242;20.886;2023-04-25T07:11:40;13.80;77.00
32524;DHT22;18965;52.242;20.886;2023-04-25T07:14:06;13.90;76.80
32524;DHT22;18965;52.242;20.886;2023-04-25T07:16:32;14.10;76.60
32524;DHT22;18965;52.242;20.886;2023-04-25T07:18:57;14.20;76.40
32524;DHT22;18965;52.242;20.886;2023-04-25T07:21:24;14.30;76.00
32524;DHT22;18965;52.242;20.886;2023-04-25T07:23:50;14.40;75.80
32524;DHT22;18965;52.242;20.886;2023-04-25T07:26:16;14.40;75.60
32524;DHT22;18965;52.242;20.886;2023-04-25T07:28:42;14.50;75.30
32524;DHT22;18965;52.242;20.886;2023-04-25T07:31:08;14.50;75.30
32524;DHT22;18965;52.242;20.886;2023-04-25T07:33:34;14.50;75.40
32524;DHT22;18965;52.242;20.886;2023-04-25T07:36:00;14.60;75.20
32524;DHT22;18965;52.242;20.886;2023-04-25T07:38:26;14.80;74.80
32524;DHT22;18965;52.242;20.886;2023-04-25T07:40:52;14.90;74.80
32524;DHT22;18965;52.242;20.886;2023-04-25T07:43:17;15.10;74.40
32524;DHT22;18965;52.242;20.886;2023-04-25T07:45:44;15.20;74.00
32524;DHT22;18965;52.242;20.886;2023-04-25T07:48:10;15.30;73.70
32524;DHT22;18965;52.242;20.886;2023-04-25T07:50:36;15.50;73.50
32524;DHT22;18965;52.242;20.886;2023-04-25T07:53:01;15.60;73.10
32524;DHT22;18965;52.242;20.886;2023-04-25T07:55:27;15.70;72.80
32524;DHT22;18965;52.242;20.886;2023-04-25T07:57:53;15.70;72.30
32524;DHT22;18965;52.242;20.886;2023-04-25T08:00:19;15.70;71.80
32524;DHT22;18965;52.242;20.886;2023-04-25T08:02:45;15.70;71.70
32524;DHT22;18965;52.242;20.886;2023-04-25T08:05:11;15.60;71.60
32524;DHT22;18965;52.242;20.886;2023-04-25T08:07:40;15.50;71.30
32524;DHT22;18965;52.242;20.886;2023-04-25T08:10:07;15.40;71.40
32524;DHT22;18965;52.242;20.886;2023-04-25T08:12:33;15.20;71.50
32524;DHT22;18965;52.242;20.886;2023-04-25T08:14:59;15.10;71.60
32524;DHT22;18965;52.242;20.886;2023-04-25T08:17:24;15.00;71.50
32524;DHT22;18965;52.242;20.886;2023-04-25T08:19:50;14.90;71.30
32524;DHT22;18965;52.242;20.886;2023-04-25T08:22:16;14.90;71.40
32524;DHT22;18965;52.242;20.886;2023-04-25T08:24:42;14.80;71.50
32524;DHT22;18965;52.242;20.886;2023-04-25T08:27:07;14.70;71.50
32524;DHT22;18965;52.242;20.886;2023-04-25T08:29:33;14.60;71.60
32524;DHT22;18965;52.242;20.886;2023-04-25T08:32:00;14.50;71.70
32524;DHT22;18965;52.242;20.886;2023-04-25T08:34:26;14.50;71.80
32524;DHT22;18965;52.242;20.886;2023-04-25T08:36:52;14.40;71.90
32524;DHT22;18965;52.242;20.886;2023-04-25T08:39:18;14.50;71.90
32524;DHT22;18965;52.242;20.886;2023-04-25T08:41:44;14.50;71.80
32524;DHT22;18965;52.242;20.886;2023-04-25T08:44:11;14.50;71.70
32524;DHT22;18965;52.242;20.886;2023-04-25T08:46:38;14.50;71.50
32524;DHT22;18965;52.242;20.886;2023-04-25T08:49:08;14.50;71.20
32524;DHT22;18965;52.242;20.886;2023-04-25T08:51:44;14.40;71.20
32524;DHT22;18965;52.242;20.886;2023-04-25T08:54:11;14.30;71.30
32524;DHT22;18965;52.242;20.886;2023-04-25T08:56:48;14.20;71.40
32524;DHT22;18965;52.242;20.886;2023-04-25T08:59:13;14.20;71.60
32524;DHT22;18965;52.242;20.886;2023-04-25T09:01:39;14.10;71.60
32524;DHT22;18965;52.242;20.886;2023-04-25T09:04:06;14.10;71.70
32524;DHT22;18965;52.242;20.886;2023-04-25T09:06:32;14.10;71.70
32524;DHT22;18965;52.242;20.886;2023-04-25T09:09:07;14.10;71.80
32524;DHT22;18965;52.242;20.886;2023-04-25T09:11:35;14.10;71.60
32524;DHT22;18965;52.242;20.886;2023-04-25T09:14:16;14.10;71.50
32524;DHT22;18965;52.242;20.886;2023-04-25T09:19:24;14.30;71.90
32524;DHT22;18965;52.242;20.886;2023-04-25T09:21:51;14.30;71.90
32524;DHT22;18965;52.242;20.886;2023-04-25T09:24:40;14.40;71.70
32524;DHT22;18965;52.242;20.886;2023-04-25T09:27:09;14.50;71.80
32524;DHT22;18965;52.242;20.886;2023-04-25T09:29:37;14.40;71.40
32524;DHT22;18965;52.242;20.886;2023-04-25T09:32:23;14.40;71.40
32524;DHT22;18965;52.242;20.886;2023-04-25T09:34:52;14.40;71.30
32524;DHT22;18965;52.242;20.886;2023-04-25T09:37:23;14.40;71.00
32524;DHT22;18965;52.242;20.886;2023-04-25T09:39:53;14.40;71.00
32524;DHT22;18965;52.242;20.886;2023-04-25T09:42:26;14.30;71.10
32524;DHT22;18965;52.242;20.886;2023-04-25T09:44:55;14.30;71.50
32524;DHT22;18965;52.242;20.886;2023-04-25T09:47:22;14.30;71.50
32524;DHT22;18965;52.242;20.886;2023-04-25T09:49:49;14.20;71.50
32524;DHT22;18965;52.242;20.886;2023-04-25T09:52:19;14.20;71.60
32524;DHT22;18965;52.242;20.886;2023-04-25T09:54:46;14.10;71.60
32524;DHT22;18965;52.242;20.886;2023-04-25T09:57:15;14.00;71.80
32524;DHT22;18965;52.242;20.886;2023-04-25T10:00:01;13.90;72.00
32524;DHT22;18965;52.242;20.886;2023-04-25T10:02:29;13.90;72.50
32524;DHT22;18965;52.242;20.886;2023-04-25T10:04:57;13.80;72.30
32524;DHT22;18965;52.242;20.886;2023-04-25T10:07:26;13.80;72.30
32524;DHT22;18965;52.242;20.886;2023-04-25T10:09:59;13.80;72.50
32524;DHT22;18965;52.242;20.886;2023-04-25T10:12:26;13.80;72.80
32524;DHT22;18965;52.242;20.886;2023-04-25T10:14:52;13.80;72.80
32524;DHT22;18965;52.242;20.886;2023-04-25T10:17:20;13.80;72.70
32524;DHT22;18965;52.242;20.886;2023-04-25T10:19:49;13.80;72.70
32524;DHT22;18965;52.242;20.886;2023-04-25T10:22:38;13.80;72.70
32524;DHT22;18965;52.242;20.886;2023-04-25T10:25:05;13.80;73.00
32524;DHT22;18965;52.242;20.886;2023-04-25T10:27:32;13.80;72.80
32524;DHT22;18965;52.242;20.886;2023-04-25T10:30:08;13.80;72.80
32524;DHT22;18965;52.242;20.886;2023-04-25T10:32:36;13.80;73.00
32524;DHT22;18965;52.242;20.886;2023-04-25T10:35:19;13.90;73.00
32524;DHT22;18965;52.242;20.886;2023-04-25T10:38:10;13.80;73.10
32524;DHT22;18965;52.242;20.886;2023-04-25T10:40:36;13.80;73.00
32524;DHT22;18965;52.242;20.886;2023-04-25T10:45:52;13.70;73.00
32524;DHT22;18965;52.242;20.886;2023-04-25T10:48:28;13.70;73.00
32524;DHT22;18965;52.242;20.886;2023-04-25T10:53:35;13.70;73.20
32524;DHT22;18965;52.242;20.886;2023-04-25T10:56:11;13.60;72.80
32524;DHT22;18965;52.242;20.886;2023-04-25T10:58:42;13.60;72.90
32524;DHT22;18965;52.242;20.886;2023-04-25T11:01:08;13.60;73.10
32524;DHT22;18965;52.242;20.886;2023-04-25T11:03:41;13.60;73.00
32524;DHT22;18965;52.242;20.886;2023-04-25T11:06:41;13.60;73.00
32524;DHT22;18965;52.242;20.886;2023-04-25T11:09:03;13.70;73.10
32524;DHT22;18965;52.242;20.886;2023-04-25T11:11:36;13.80;72.90
32524;DHT22;18965;52.242;20.886;2023-04-25T11:14:02;13.80;73.00
32524;DHT22;18965;52.242;20.886;2023-04-25T11:16:28;13.90;72.90
32524;DHT22;18965;52.242;20.886;2023-04-25T11:18:56;14.00;72.80
32524;DHT22;18965;52.242;20.886;2023-04-25T11:21:22;14.00;72.60
32524;DHT22;18965;52.242;20.886;2023-04-25T11:23:48;14.10;72.30
32524;DHT22;18965;52.242;20.886;2023-04-25T11:26:14;14.20;72.40
32524;DHT22;18965;52.242;20.886;2023-04-25T11:28:40;14.20;72.30
32524;DHT22;18965;52.242;20.886;2023-04-25T11:31:06;14.30;72.30
32524;DHT22;18965;52.242;20.886;2023-04-25T11:33:32;14.40;72.00
32524;DHT22;18965;52.242;20.886;2023-04-25T11:35:58;14.60;71.80
32524;DHT22;18965;52.242;20.886;2023-04-25T11:38:25;14.40;71.50
32524;DHT22;18965;52.242;20.886;2023-04-25T11:40:52;14.40;71.60
32524;DHT22;18965;52.242;20.886;2023-04-25T11:43:21;14.50;71.60
32524;DHT22;18965;52.242;20.886;2023-04-25T11:45:50;14.50;71.20
32524;DHT22;18965;52.242;20.886;2023-04-25T11:48:17;14.50;70.70
32524;DHT22;18965;52.242;20.886;2023-04-25T11:50:42;14.50;70.50
32524;DHT22;18965;52.242;20.886;2023-04-25T11:53:08;14.40;70.50
32524;DHT22;18965;52.242;20.886;2023-04-25T11:55:34;14.40;70.30
32524;DHT22;18965;52.242;20.886;2023-04-25T11:58:01;14.30;70.20
32524;DHT22;18965;52.242;20.886;2023-04-25T12:00:28;14.30;70.60
32524;DHT22;18965;52.242;20.886;2023-04-25T12:02:55;14.30;70.70
32524;DHT22;18965;52.242;20.886;2023-04-25T12:05:25;14.30;70.50
32524;DHT22;18965;52.242;20.886;2023-04-25T12:07:51;14.30;70.30
32524;DHT22;18965;52.242;20.886;2023-04-25T12:10:18;14.30;70.10
32524;DHT22;18965;52.242;20.886;2023-04-25T12:12:46;14.30;70.30
32524;DHT22;18965;52.242;20.886;2023-04-25T12:15:25;14.30;70.20
32524;DHT22;18965;52.242;20.886;2023-04-25T12:17:53;14.30;69.60
32524;DHT22;18965;52.242;20.886;2023-04-25T12:20:23;14.20;69.50
32524;DHT22;18965;52.242;20.886;2023-04-25T12:22:49;14.20;69.60
32524;DHT22;18965;52.242;20.886;2023-04-25T12:25:54;14.20;69.40
32524;DHT22;18965;52.242;20.886;2023-04-25T12:28:22;14.20;68.60
32524;DHT22;18965;52.242;20.886;2023-04-25T12:31:03;14.20;68.70
32524;DHT22;18965;52.242;20.886;2023-04-25T12:33:34;14.20;68.50
32524;DHT22;18965;52.242;20.886;2023-04-25T12:36:00;14.20;68.50
32524;DHT22;18965;52.242;20.886;2023-04-25T12:38:30;14.20;68.30
32524;DHT22;18965;52.242;20.886;2023-04-25T12:40:59;14.20;68.20
32524;DHT22;18965;52.242;20.886;2023-04-25T12:43:25;14.20;68.00
32524;DHT22;18965;52.242;20.886;2023-04-25T12:45:52;14.20;67.90
32524;DHT22;18965;52.242;20.886;2023-04-25T12:48:19;14.10;68.00
32524;DHT22;18965;52.242;20.886;2023-04-25T12:50:46;14.10;68.00
32524;DHT22;18965;52.242;20.886;2023-04-25T12:53:18;14.10;68.00
32524;DHT22;18965;52.242;20.886;2023-04-25T12:55:44;14.10;68.00
32524;DHT22;18965;52.242;20.886;2023-04-25T12:58:12;14.10;68.00
32524;DHT22;18965;52.242;20.886;2023-04-25T13:00:38;14.10;68.20
32524;DHT22;18965;52.242;20.886;2023-04-25T13:03:04;14.00;68.30
32524;DHT22;18965;52.242;20.886;2023-04-25T13:05:30;14.00;67.80
32524;DHT22;18965;52.242;20.886;2023-04-25T13:07:56;14.00;67.70
32524;DHT22;18965;52.242;20.886;2023-04-25T13:10:22;14.00;68.20
32524;DHT22;18965;52.242;20.886;2023-04-25T13:12:48;14.10;68.60
32524;DHT22;18965;52.242;20.886;2023-04-25T13:15:14;14.10;68.80
32524;DHT22;18965;52.242;20.886;2023-04-25T13:17:41;14.10;68.80
32524;DHT22;18965;52.242;20.886;2023-04-25T13:20:07;14.20;68.80
32524;DHT22;18965;52.242;20.886;2023-04-25T13:22:35;14.20;68.70
32524;DHT22;18965;52.242;20.886;2023-04-25T13:25:05;14.20;68.70
32524;DHT22;18965;52.242;20.886;2023-04-25T13:27:32;14.20;68.70
32524;DHT22;18965;52.242;20.886;2023-04-25T13:30:08;14.20;68.50
32524;DHT22;18965;52.242;20.886;2023-04-25T13:32:35;14.20;68.70
32524;DHT22;18965;52.242;20.886;2023-04-25T13:35:04;14.20;69.10
32524;DHT22;18965;52.242;20.886;2023-04-25T13:37:30;14.30;69.30
32524;DHT22;18965;52.242;20.886;2023-04-25T13:40:02;14.20;69.10
32524;DHT22;18965;52.242;20.886;2023-04-25T13:42:30;14.20;69.10
32524;DHT22;18965;52.242;20.886;2023-04-25T13:44:56;14.20;69.20
32524;DHT22;18965;52.242;20.886;2023-04-25T13:47:22;14.20;69.30
32524;DHT22;18965;52.242;20.886;2023-04-25T13:49:50;14.30;69.60
32524;DHT22;18965;52.242;20.886;2023-04-25T13:52:16;14.30;69.70
32524;DHT22;18965;52.242;20.886;2023-04-25T13:54:41;14.30;69.60
32524;DHT22;18965;52.242;20.886;2023-04-25T13:57:07;14.40;69.70
32524;DHT22;18965;52.242;20.886;2023-04-25T13:59:33;14.40;69.50
32524;DHT22;18965;52.242;20.886;2023-04-25T14:01:58;14.40;69.40
32524;DHT22;18965;52.242;20.886;2023-04-25T14:04:24;14.40;69.20
32524;DHT22;18965;52.242;20.886;2023-04-25T14:06:50;14.30;69.80
32524;DHT22;18965;52.242;20.886;2023-04-25T14:09:17;14.30;69.10
32524;DHT22;18965;52.242;20.886;2023-04-25T14:11:43;14.30;69.60
32524;DHT22;18965;52.242;20.886;2023-04-25T14:14:08;14.20;69.80
32524;DHT22;18965;52.242;20.886;2023-04-25T14:16:34;14.20;70.00
32524;DHT22;18965;52.242;20.886;2023-04-25T14:19:01;14.20;70.00
32524;DHT22;18965;52.242;20.886;2023-04-25T14:21:27;14.20;70.20
32524;DHT22;18965;52.242;20.886;2023-04-25T14:23:53;14.20;70.20
32524;DHT22;18965;52.242;20.886;2023-04-25T14:26:19;14.10;70.00
32524;DHT22;18965;52.242;20.886;2023-04-25T14:28:45;14.10;70.00
32524;DHT22;18965;52.242;20.886;2023-04-25T14:31:10;14.00;70.10
32524;DHT22;18965;52.242;20.886;2023-04-25T14:33:36;13.90;70.60
32524;DHT22;18965;52.242;20.886;2023-04-25T14:36:05;13.90;70.80
32524;DHT22;18965;52.242;20.886;2023-04-25T14:38:31;13.80;71.00
32524;DHT22;18965;52.242;20.886;2023-04-25T14:40:56;13.80;71.40
32524;DHT22;18965;52.242;20.886;2023-04-25T14:43:22;13.80;71.70
32524;DHT22;18965;52.242;20.886;2023-04-25T14:45:48;13.80;72.00
32524;DHT22;18965;52.242;20.886;2023-04-25T14:48:13;13.80;71.90
32524;DHT22;18965;52.242;20.886;2023-04-25T14:50:40;13.80;71.90
32524;DHT22;18965;52.242;20.886;2023-04-25T14:53:06;13.80;72.00
32524;DHT22;18965;52.242;20.886;2023-04-25T14:55:32;13.80;72.10
32524;DHT22;18965;52.242;20.886;2023-04-25T14:57:57;13.90;72.40
32524;DHT22;18965;52.242;20.886;2023-04-25T15:00:23;13.90;72.50
32524;DHT22;18965;52.242;20.886;2023-04-25T15:02:50;14.00;72.60
32524;DHT22;18965;52.242;20.886;2023-04-25T15:05:17;14.10;72.80
32524;DHT22;18965;52.242;20.886;2023-04-25T15:07:43;14.10;72.50
32524;DHT22;18965;52.242;20.886;2023-04-25T15:10:10;14.20;72.30
32524;DHT22;18965;52.242;20.886;2023-04-25T15:12:42;14.10;72.20
32524;DHT22;18965;52.242;20.886;2023-04-25T15:15:09;14.10;71.70
32524;DHT22;18965;52.242;20.886;2023-04-25T15:17:40;14.10;71.70
32524;DHT22;18965;52.242;20.886;2023-04-25T15:20:08;14.10;71.90
32524;DHT22;18965;52.242;20.886;2023-04-25T15:22:38;14.00;71.80